createdAt,value
2019-05-12T00:00:20.620Z,84.02
2019-05-12T00:02:49.210Z,84.42
2019-05-12T00:05:18.443Z,85.76
2019-05-12T00:07:48.860Z,85.18
2019-05-12T00:10:17.905Z,84.53
2019-05-12T00:12:48.383Z,83.87
2019-05-12T00:15:19.174Z,83.93
2019-05-12T00:17:48.407Z,84.42
2019-05-12T00:20:18.198Z,84.35
2019-05-12T00:22:49.019Z,84.75
2019-05-12T00:25:18.476Z,85.48
2019-05-12T00:27:48.715Z,85.68
2019-05-12T00:30:38.861Z,85.50
2019-05-12T00:33:09.227Z,85.58
2019-05-12T00:35:38.387Z,85.68
2019-05-12T00:38:08.990Z,87.08
2019-05-12T00:40:39.318Z,86.21
2019-05-12T00:43:08.645Z,86.27
2019-05-12T00:45:38.655Z,85.60
2019-05-12T00:48:09.029Z,85.69
2019-05-12T00:50:38.161Z,86.45
2019-05-12T00:53:09.188Z,85.35
2019-05-12T00:55:38.133Z,86.34
2019-05-12T00:58:08.165Z,86.15
2019-05-12T01:00:40.596Z,85.43
2019-05-12T01:03:08.653Z,85.73
2019-05-12T01:05:38.348Z,85.88
2019-05-12T01:08:09.031Z,85.62
2019-05-12T01:10:38.843Z,85.60
2019-05-12T01:13:08.555Z,85.43
2019-05-12T01:15:37.947Z,85.53
2019-05-12T01:18:09.399Z,85.82
2019-05-12T01:20:38.945Z,87.12
2019-05-12T01:23:08.498Z,87.00
2019-05-12T01:25:39.617Z,87.43
2019-05-12T01:28:08.116Z,87.41
2019-05-12T01:30:38.958Z,86.61
2019-05-12T01:33:08.545Z,86.55
2019-05-12T01:35:38.823Z,86.08
2019-05-12T01:38:08.107Z,86.66
2019-05-12T01:40:39.288Z,87.19
2019-05-12T01:43:08.531Z,87.52
2019-05-12T01:45:38.085Z,86.98
2019-05-12T01:48:08.873Z,86.44
2019-05-12T01:50:38.655Z,86.81
2019-05-12T01:53:08.442Z,86.70
2019-05-12T01:55:38.618Z,86.35
2019-05-12T01:58:08.320Z,86.79
2019-05-12T02:00:38.764Z,86.32
2019-05-12T02:03:09.053Z,86.40
2019-05-12T02:05:39.758Z,87.29
2019-05-12T02:08:09.930Z,87.02
2019-05-12T02:10:38.890Z,86.75
2019-05-12T02:13:07.980Z,86.26
2019-05-12T02:15:38.375Z,86.26
2019-05-12T02:18:09.053Z,86.87
2019-05-12T02:20:38.112Z,87.12
2019-05-12T02:23:09.052Z,87.10
2019-05-12T02:25:38.114Z,86.59
2019-05-12T02:28:09.131Z,87.27
2019-05-12T02:30:40.694Z,86.93
2019-05-12T02:33:07.272Z,85.86
2019-05-12T02:35:35.905Z,86.89
2019-05-12T02:38:05.145Z,86.63
2019-05-12T02:40:34.643Z,85.52
2019-05-12T02:43:05.300Z,85.53
2019-05-12T02:45:35.561Z,85.26
2019-05-12T02:48:05.250Z,85.49
2019-05-12T02:50:37.185Z,85.69
2019-05-12T02:53:06.698Z,85.83
2019-05-12T02:55:35.884Z,85.44
2019-05-12T02:58:05.464Z,85.67
2019-05-12T03:00:36.500Z,85.63
2019-05-12T03:03:07.741Z,85.88
2019-05-12T03:05:37.251Z,85.60
2019-05-12T03:08:05.862Z,85.67
2019-05-12T03:10:36.128Z,85.54
2019-05-12T03:13:05.201Z,86.02
2019-05-12T03:15:36.420Z,86.18
2019-05-12T03:18:06.121Z,85.65
2019-05-12T03:20:35.472Z,85.66
2019-05-12T03:23:05.922Z,86.05
2019-05-12T03:25:35.633Z,85.96
2019-05-12T03:28:08.289Z,85.94
2019-05-12T03:30:38.181Z,85.02
2019-05-12T03:33:09.438Z,85.81
2019-05-12T03:35:42.945Z,86.14
2019-05-12T03:38:05.900Z,85.37
2019-05-12T03:40:37.570Z,86.18
2019-05-12T03:43:05.676Z,86.42
2019-05-12T03:45:35.870Z,86.42
2019-05-12T03:48:06.004Z,86.73
2019-05-12T03:50:36.168Z,86.09
2019-05-12T03:53:09.991Z,86.68
2019-05-12T03:55:41.477Z,86.83
2019-05-12T03:58:06.355Z,86.58
2019-05-12T04:00:36.164Z,86.43
2019-05-12T04:03:05.670Z,86.82
2019-05-12T04:05:35.765Z,86.96
2019-05-12T04:08:06.198Z,86.93
2019-05-12T04:10:36.288Z,87.43
2019-05-12T04:13:05.684Z,87.23
2019-05-12T04:15:35.440Z,86.97
2019-05-12T04:18:05.890Z,87.56
2019-05-12T04:20:36.029Z,88.09
2019-05-12T04:23:06.481Z,87.79
2019-05-12T04:25:47.634Z,86.92
2019-05-12T04:28:05.646Z,86.22
2019-05-12T04:30:35.568Z,85.78
2019-05-12T04:33:05.762Z,86.10
2019-05-12T04:35:35.329Z,86.50
2019-05-12T04:38:05.068Z,86.40
2019-05-12T04:40:36.034Z,85.58
2019-05-12T04:43:05.702Z,84.79
2019-05-12T04:45:35.147Z,84.81
2019-05-12T04:48:05.605Z,84.88
2019-05-12T04:50:35.703Z,85.64
2019-05-12T04:53:06.296Z,85.61
2019-05-12T04:55:35.912Z,85.70
2019-05-12T04:58:05.286Z,85.31
2019-05-12T05:00:35.292Z,85.26
2019-05-12T05:03:05.474Z,84.72
2019-05-12T05:05:35.707Z,85.01
2019-05-12T05:08:04.963Z,85.22
2019-05-12T05:10:34.347Z,85.15
2019-05-12T05:13:05.332Z,84.52
2019-05-12T05:15:34.877Z,83.90
2019-05-12T05:18:06.273Z,83.48
2019-05-12T05:20:34.723Z,83.23
2019-05-12T05:23:03.938Z,82.63
2019-05-12T05:25:34.429Z,83.83
2019-05-12T05:28:04.104Z,83.86
2019-05-12T05:30:33.919Z,83.61
2019-05-12T05:33:04.684Z,82.57
2019-05-12T05:35:39.396Z,83.22
2019-05-12T05:38:04.920Z,83.30
2019-05-12T05:40:35.827Z,80.94
2019-05-12T05:43:12.661Z,80.49
2019-05-12T05:45:35.107Z,80.02
2019-05-12T05:48:07.633Z,78.86
2019-05-12T05:50:34.559Z,76.42
2019-05-12T05:53:03.979Z,75.77
2019-05-12T05:55:34.379Z,76.01
2019-05-12T05:58:05.814Z,74.63
2019-05-12T06:00:35.187Z,74.10
2019-05-12T06:03:05.460Z,74.33
2019-05-12T06:05:35.421Z,73.69
2019-05-12T06:08:04.453Z,73.94
2019-05-12T06:10:36.082Z,74.90
2019-05-12T06:13:04.024Z,73.05
2019-05-12T06:15:35.964Z,72.97
2019-05-12T06:18:03.812Z,74.00
2019-05-12T06:20:37.540Z,74.67
2019-05-12T06:23:04.406Z,74.43
2019-05-12T06:25:46.330Z,75.79
2019-05-12T06:28:04.615Z,74.82
2019-05-12T06:30:37.404Z,75.21
2019-05-12T06:33:04.273Z,74.82
2019-05-12T06:35:37.325Z,74.07
2019-05-12T06:38:04.965Z,72.76
2019-05-12T06:40:40.270Z,72.99
2019-05-12T06:43:04.368Z,72.62
2019-05-12T06:45:41.689Z,72.49
2019-05-12T06:48:03.673Z,73.24
2019-05-12T06:50:36.926Z,72.73
2019-05-12T06:53:04.990Z,72.90
2019-05-12T06:55:36.032Z,73.23
2019-05-12T06:58:04.777Z,73.43
2019-05-12T07:00:35.008Z,73.32
2019-05-12T07:03:04.426Z,73.62
2019-05-12T07:05:38.282Z,73.10
2019-05-12T07:08:04.441Z,72.82
2019-05-12T07:10:39.350Z,72.18
2019-05-12T07:13:05.497Z,71.69
2019-05-12T07:15:35.717Z,72.66
2019-05-12T07:18:17.404Z,72.57
2019-05-12T07:20:44.623Z,72.52
2019-05-12T07:23:14.303Z,72.74
2019-05-12T07:25:44.450Z,71.07
2019-05-12T07:28:14.486Z,71.64
2019-05-12T07:30:44.160Z,68.28
2019-05-12T07:33:14.563Z,68.08
2019-05-12T07:35:44.461Z,68.81
2019-05-12T07:38:20.961Z,71.33
2019-05-12T07:40:45.886Z,71.12
2019-05-12T07:43:20.481Z,72.05
2019-05-12T07:45:48.224Z,72.94
2019-05-12T07:48:16.709Z,73.07
2019-05-12T07:50:50.170Z,73.93
2019-05-12T07:53:15.472Z,74.26
2019-05-12T07:55:47.452Z,74.78
2019-05-12T07:58:18.768Z,75.09
2019-05-12T08:00:44.521Z,75.36
2019-05-12T08:03:19.049Z,74.92
2019-05-12T08:05:43.937Z,74.33
2019-05-12T08:08:14.546Z,76.01
2019-05-12T08:10:44.299Z,77.55
2019-05-12T08:13:14.874Z,78.33
2019-05-12T08:15:45.686Z,77.30
2019-05-12T08:18:13.994Z,77.79
2019-05-12T08:20:43.557Z,79.08
2019-05-12T08:23:14.086Z,79.64
2019-05-12T08:25:43.763Z,79.58
2019-05-12T08:28:18.178Z,79.22
2019-05-12T08:30:47.395Z,78.73
2019-05-12T08:33:14.619Z,80.23
2019-05-12T08:35:43.881Z,78.87
2019-05-12T08:38:14.559Z,78.08
2019-05-12T08:40:46.475Z,77.16
2019-05-12T08:43:14.973Z,76.27
2019-05-12T08:45:44.309Z,76.07
2019-05-12T08:48:16.945Z,75.67
2019-05-12T08:50:45.982Z,74.33
2019-05-12T08:53:20.307Z,69.58
2019-05-12T08:55:43.831Z,62.80
2019-05-12T08:58:29.652Z,62.86
2019-05-12T09:00:50.155Z,61.05
2019-05-12T09:03:14.091Z,58.85
2019-05-12T09:05:44.512Z,60.50
2019-05-12T09:08:13.948Z,58.29
2019-05-12T09:10:44.946Z,56.92
2019-05-12T09:13:14.434Z,55.43
2019-05-12T09:15:43.830Z,49.39
2019-05-12T09:18:14.416Z,49.89
2019-05-12T09:20:48.745Z,51.36
2019-05-12T09:23:13.580Z,54.40
2019-05-12T09:25:45.378Z,55.11
2019-05-12T09:28:13.868Z,55.08
2019-05-12T09:30:45.859Z,56.27
2019-05-12T09:33:14.018Z,58.19
2019-05-12T09:35:43.759Z,53.51
2019-05-12T09:38:21.332Z,51.17
2019-05-12T09:40:43.716Z,52.81
2019-05-12T09:43:13.665Z,53.27
2019-05-12T09:45:52.313Z,54.31
2019-05-12T09:48:14.141Z,56.35
2019-05-12T09:50:46.267Z,57.51
2019-05-12T09:53:14.387Z,57.57
2019-05-12T09:55:43.877Z,53.30
2019-05-12T09:58:14.145Z,49.48
2019-05-12T10:00:43.620Z,47.78
2019-05-12T10:03:13.871Z,50.03
2019-05-12T10:05:44.221Z,49.04
2019-05-12T10:08:13.919Z,49.50
2019-05-12T10:10:46.781Z,48.19
2019-05-12T10:13:14.563Z,44.77
2019-05-12T10:15:43.122Z,44.48
2019-05-12T10:18:14.122Z,41.47
2019-05-12T10:20:43.911Z,41.64
2019-05-12T10:23:18.617Z,42.34
2019-05-12T10:25:44.637Z,44.88
2019-05-12T10:28:13.913Z,46.57
2019-05-12T10:30:47.157Z,46.61
2019-05-12T10:33:13.952Z,46.22
2019-05-12T10:35:43.924Z,47.98
2019-05-12T10:38:13.793Z,47.69
2019-05-12T10:40:44.504Z,50.04
2019-05-12T10:43:12.609Z,47.77
2019-05-12T10:45:41.149Z,46.25
2019-05-12T10:48:09.607Z,43.20
2019-05-12T10:50:38.148Z,41.87
2019-05-12T10:53:09.956Z,42.62
2019-05-12T10:55:36.894Z,43.29
2019-05-12T10:58:07.134Z,43.03
2019-05-12T11:00:35.777Z,44.65
2019-05-12T11:03:10.767Z,46.31
2019-05-12T11:05:34.859Z,43.64
2019-05-12T11:08:10.992Z,48.13
2019-05-12T11:10:33.883Z,43.80
2019-05-12T11:13:08.759Z,43.99
2019-05-12T11:15:34.282Z,46.20
2019-05-12T11:18:04.745Z,46.80
2019-05-12T11:20:34.315Z,44.65
2019-05-12T11:23:03.649Z,44.24
2019-05-12T11:25:34.071Z,44.95
2019-05-12T11:28:03.638Z,44.64
2019-05-12T11:30:34.572Z,44.92
2019-05-12T11:33:04.395Z,45.27
2019-05-12T11:35:33.911Z,45.62
2019-05-12T11:38:04.500Z,45.20
2019-05-12T11:40:34.646Z,49.71
2019-05-12T11:43:04.183Z,45.67
2019-05-12T11:45:33.549Z,45.01
2019-05-12T11:48:07.929Z,45.60
2019-05-12T11:50:32.778Z,45.83
2019-05-12T11:53:01.315Z,43.84
2019-05-12T11:55:31.707Z,43.97
2019-05-12T11:58:05.104Z,43.69
2019-05-12T12:00:33.661Z,45.02
2019-05-12T12:03:03.839Z,43.67
2019-05-12T12:05:33.883Z,42.81
2019-05-12T12:08:03.915Z,42.81
2019-05-12T12:10:35.397Z,43.49
2019-05-12T12:13:03.767Z,44.08
2019-05-12T12:15:34.559Z,44.18
2019-05-12T12:18:03.856Z,43.17
2019-05-12T12:20:35.752Z,43.32
2019-05-12T12:23:10.574Z,43.71
2019-05-12T12:25:34.623Z,43.91
2019-05-12T12:28:04.298Z,45.31
2019-05-12T12:30:33.953Z,46.76
2019-05-12T12:33:04.011Z,47.68
2019-05-12T12:35:34.484Z,47.73
2019-05-12T12:38:07.052Z,49.10
2019-05-12T12:40:35.799Z,48.17
2019-05-12T12:43:04.428Z,47.76
2019-05-12T12:45:40.290Z,48.48
2019-05-12T12:48:08.331Z,47.91
2019-05-12T12:50:36.934Z,46.89
2019-05-12T12:53:05.649Z,47.58
2019-05-12T12:55:38.118Z,50.00
2019-05-12T12:58:04.517Z,49.98
2019-05-12T13:00:46.891Z,51.18
2019-05-12T13:03:03.843Z,51.26
2019-05-12T13:05:34.547Z,51.74
2019-05-12T13:08:04.246Z,53.23
2019-05-12T13:10:33.735Z,57.81
2019-05-12T13:13:04.146Z,58.32
2019-05-12T13:15:33.974Z,60.84
2019-05-12T13:18:02.639Z,60.88
2019-05-12T13:20:31.157Z,61.09
2019-05-12T13:22:59.687Z,59.30
2019-05-12T13:25:28.282Z,59.84
2019-05-12T13:28:01.440Z,58.36
2019-05-12T13:30:27.066Z,57.33
2019-05-12T13:32:55.585Z,56.94
2019-05-12T13:35:24.148Z,57.64
2019-05-12T13:37:56.527Z,56.56
2019-05-12T13:40:23.359Z,57.63
2019-05-12T13:42:54.320Z,57.30
2019-05-12T13:45:24.189Z,58.81
2019-05-12T13:47:53.389Z,58.57
2019-05-12T13:50:26.350Z,57.94
2019-05-12T13:52:54.066Z,57.96
2019-05-12T13:55:23.980Z,58.31
2019-05-12T13:57:57.591Z,58.45
2019-05-12T14:00:22.907Z,58.30
2019-05-12T14:02:55.519Z,56.58
2019-05-12T14:05:24.048Z,56.18
2019-05-12T14:07:55.442Z,56.55
2019-05-12T14:10:24.336Z,57.36
2019-05-12T14:12:54.396Z,57.84
2019-05-12T14:15:24.975Z,57.13
2019-05-12T14:17:54.174Z,56.59
2019-05-12T14:20:23.950Z,55.90
2019-05-12T14:22:53.855Z,56.26
2019-05-12T14:25:29.802Z,55.26
2019-05-12T14:27:53.622Z,55.44
2019-05-12T14:30:24.363Z,55.02
2019-05-12T14:32:57.148Z,56.28
2019-05-12T14:35:22.835Z,54.51
2019-05-12T14:37:51.294Z,57.12
2019-05-12T14:40:21.312Z,56.82
2019-05-12T14:42:50.141Z,56.57
2019-05-12T14:45:19.401Z,57.69
2019-05-12T14:47:48.185Z,58.40
2019-05-12T14:50:16.687Z,59.79
2019-05-12T14:52:50.070Z,58.03
2019-05-12T14:55:15.410Z,59.22
2019-05-12T14:57:43.930Z,59.62
2019-05-12T15:00:17.320Z,59.86
2019-05-12T15:02:43.898Z,61.62
2019-05-12T15:05:14.106Z,67.13
2019-05-12T15:07:51.275Z,66.00
2019-05-12T15:10:14.517Z,67.30
2019-05-12T15:12:44.136Z,67.66
2019-05-12T15:15:18.390Z,65.59
2019-05-12T15:17:44.419Z,65.20
2019-05-12T15:20:13.912Z,66.06
2019-05-12T15:22:51.375Z,65.00
2019-05-12T15:25:14.596Z,64.13
2019-05-12T15:27:46.041Z,63.82
2019-05-12T15:30:22.289Z,63.82
2019-05-12T15:32:43.881Z,64.04
2019-05-12T15:35:13.855Z,63.64
2019-05-12T15:37:43.649Z,61.75
2019-05-12T15:40:14.539Z,63.17
2019-05-12T15:42:45.336Z,61.60
2019-05-12T15:45:16.584Z,63.17
2019-05-12T15:47:44.741Z,62.27
2019-05-12T15:50:15.012Z,62.90
2019-05-12T15:52:45.701Z,60.24
2019-05-12T15:55:17.371Z,61.81
2019-05-12T15:57:44.485Z,62.49
2019-05-12T16:00:16.742Z,62.83
2019-05-12T16:02:44.415Z,61.31
2019-05-12T16:05:14.568Z,61.17
2019-05-12T16:07:44.189Z,61.64
2019-05-12T16:10:14.450Z,62.27
2019-05-12T16:12:43.625Z,61.30
2019-05-12T16:15:17.384Z,61.80
2019-05-12T16:17:44.147Z,62.54
2019-05-12T16:20:14.170Z,62.96
2019-05-12T16:22:45.146Z,62.49
2019-05-12T16:25:15.304Z,61.69
2019-05-12T16:27:44.649Z,61.56
2019-05-12T16:30:14.054Z,61.77
2019-05-12T16:32:47.242Z,61.25
2019-05-12T16:35:14.407Z,61.19
2019-05-12T16:37:44.229Z,59.54
2019-05-12T16:40:13.763Z,60.80
2019-05-12T16:42:48.354Z,60.91
2019-05-12T16:45:14.466Z,61.08
2019-05-12T16:47:44.806Z,61.83
2019-05-12T16:50:19.689Z,61.60
2019-05-12T16:52:45.344Z,61.46
2019-05-12T16:55:14.499Z,61.09
2019-05-12T16:57:51.513Z,61.15
2019-05-12T17:00:15.549Z,61.10
2019-05-12T17:02:52.178Z,60.27
2019-05-12T17:05:19.800Z,60.50
2019-05-12T17:07:44.869Z,59.37
2019-05-12T17:10:16.423Z,59.19
2019-05-12T17:12:44.016Z,58.22
2019-05-12T17:15:14.966Z,56.91
2019-05-12T17:17:44.695Z,55.67
2019-05-12T17:20:14.190Z,54.99
2019-05-12T17:22:45.801Z,55.20
2019-05-12T17:25:15.224Z,54.81
2019-05-12T17:27:44.747Z,54.15
2019-05-12T17:30:14.316Z,53.49
2019-05-12T17:32:57.465Z,51.41
2019-05-12T17:35:14.585Z,49.81
2019-05-12T17:37:43.458Z,50.36
2019-05-12T17:40:17.046Z,49.80
2019-05-12T17:42:44.098Z,49.86
2019-05-12T17:45:15.821Z,50.92
2019-05-12T17:47:44.560Z,51.41
2019-05-12T17:50:14.151Z,51.24
2019-05-12T17:52:45.048Z,51.34
2019-05-12T17:55:14.511Z,52.08
2019-05-12T17:57:44.044Z,51.46
2019-05-12T18:00:14.886Z,49.74
2019-05-12T18:02:44.161Z,48.60
2019-05-12T18:05:15.722Z,48.19
2019-05-12T18:07:44.822Z,47.14
2019-05-12T18:10:14.241Z,46.57
2019-05-12T18:12:45.079Z,46.49
2019-05-12T18:15:14.961Z,46.52
2019-05-12T18:17:49.628Z,47.09
2019-05-12T18:20:15.750Z,47.72
2019-05-12T18:22:45.285Z,47.70
2019-05-12T18:25:15.042Z,48.04
2019-05-12T18:27:50.317Z,49.63
2019-05-12T18:30:18.652Z,49.42
2019-05-12T18:32:44.855Z,49.40
2019-05-12T18:35:13.821Z,49.18
2019-05-12T18:37:42.480Z,50.15
2019-05-12T18:40:11.461Z,50.60
2019-05-12T18:42:39.921Z,50.39
2019-05-12T18:45:17.354Z,50.97
2019-05-12T18:47:38.888Z,51.39
2019-05-12T18:50:09.162Z,51.56
2019-05-12T18:52:42.963Z,51.98
2019-05-12T18:55:09.197Z,51.75
2019-05-12T18:57:39.244Z,52.38
2019-05-12T19:00:18.090Z,51.98
2019-05-12T19:02:46.529Z,51.82
2019-05-12T19:05:21.842Z,50.95
2019-05-12T19:07:45.135Z,51.71
2019-05-12T19:10:14.314Z,51.20
2019-05-12T19:12:43.983Z,52.38
2019-05-12T19:15:17.239Z,52.51
2019-05-12T19:17:43.647Z,52.77
2019-05-12T19:20:14.321Z,52.66
2019-05-12T19:22:48.133Z,52.60
2019-05-12T19:25:14.916Z,52.82
2019-05-12T19:27:45.837Z,52.71
2019-05-12T19:30:19.217Z,52.95
2019-05-12T19:32:45.149Z,52.45
2019-05-12T19:35:17.882Z,53.18
2019-05-12T19:37:45.394Z,52.65
2019-05-12T19:40:17.396Z,53.23
2019-05-12T19:42:44.638Z,52.91
2019-05-12T19:45:21.015Z,52.95
2019-05-12T19:47:44.288Z,53.27
2019-05-12T19:50:17.570Z,53.97
2019-05-12T19:52:43.273Z,53.85
2019-05-12T19:55:14.100Z,53.99
2019-05-12T19:57:44.104Z,54.52
2019-05-12T20:00:13.886Z,54.93
2019-05-12T20:02:42.646Z,54.73
2019-05-12T20:05:15.034Z,55.06
2019-05-12T20:07:44.381Z,55.94
2019-05-12T20:10:16.153Z,55.71
2019-05-12T20:12:43.605Z,55.68
2019-05-12T20:15:15.118Z,55.90
2019-05-12T20:17:44.724Z,56.33
2019-05-12T20:20:13.777Z,56.34
2019-05-12T20:22:44.072Z,56.77
2019-05-12T20:25:14.648Z,57.05
2019-05-12T20:27:44.617Z,57.04
2019-05-12T20:30:19.182Z,57.37
2019-05-12T20:32:44.361Z,56.74
2019-05-12T20:35:14.671Z,57.60
2019-05-12T20:37:52.420Z,56.95
2019-05-12T20:40:13.773Z,57.21
2019-05-12T20:43:04.780Z,56.47
2019-05-12T20:45:13.906Z,56.47
2019-05-12T20:47:44.860Z,57.36
2019-05-12T20:50:14.646Z,57.49
2019-05-12T20:52:48.685Z,56.74
2019-05-12T20:55:14.619Z,57.08
2019-05-12T20:57:50.185Z,57.56
2019-05-12T21:00:14.384Z,57.00
2019-05-12T21:02:44.338Z,57.45
2019-05-12T21:05:16.425Z,57.71
2019-05-12T21:07:43.515Z,58.09
2019-05-12T21:10:14.429Z,58.27
2019-05-12T21:12:46.238Z,58.52
2019-05-12T21:15:19.926Z,58.60
2019-05-12T21:17:46.446Z,59.53
2019-05-12T21:20:16.529Z,59.69
2019-05-12T21:22:43.621Z,59.48
2019-05-12T21:25:12.894Z,59.84
2019-05-12T21:27:44.785Z,60.42
2019-05-12T21:30:14.750Z,60.78
2019-05-12T21:32:47.162Z,59.16
2019-05-12T21:35:20.451Z,59.84
2019-05-12T21:37:45.561Z,60.24
2019-05-12T21:40:14.893Z,60.81
2019-05-12T21:42:44.726Z,60.98
2019-05-12T21:45:14.608Z,61.18
2019-05-12T21:47:44.467Z,61.14
2019-05-12T21:50:14.010Z,61.40
2019-05-12T21:52:44.706Z,61.70
2019-05-12T21:55:21.200Z,61.04
2019-05-12T21:57:43.918Z,61.77
2019-05-12T22:00:28.583Z,61.68
2019-05-12T22:03:02.651Z,61.29
2019-05-12T22:05:47.070Z,61.35
2019-05-12T22:07:57.422Z,61.97
2019-05-12T22:10:30.483Z,61.49
2019-05-12T22:13:00.370Z,62.12
2019-05-12T22:15:28.706Z,61.99
2019-05-12T22:17:59.951Z,61.59
2019-05-12T22:20:30.303Z,62.13
2019-05-12T22:23:00.681Z,62.55
2019-05-12T22:25:29.711Z,62.67
2019-05-12T22:27:59.109Z,62.86
2019-05-12T22:30:29.851Z,63.31
2019-05-12T22:32:59.411Z,63.06
2019-05-12T22:35:28.814Z,63.14
2019-05-12T22:37:57.321Z,63.26
2019-05-12T22:40:25.809Z,63.55
2019-05-12T22:42:56.981Z,63.77
2019-05-12T22:45:24.618Z,63.51
2019-05-12T22:47:55.277Z,63.95
2019-05-12T22:50:27.346Z,64.27
2019-05-12T22:52:53.419Z,64.49
2019-05-12T22:55:27.822Z,64.93
2019-05-12T22:57:52.000Z,64.96
2019-05-12T23:00:21.653Z,65.37
2019-05-12T23:02:50.183Z,65.82
2019-05-12T23:05:20.525Z,65.94
2019-05-12T23:07:48.894Z,66.01
2019-05-12T23:10:17.447Z,66.42
2019-05-12T23:12:50.247Z,66.49
2019-05-12T23:15:16.304Z,66.83
2019-05-12T23:17:49.209Z,67.14
2019-05-12T23:20:15.745Z,67.65
2019-05-12T23:22:44.293Z,68.04
2019-05-12T23:25:19.576Z,68.56
2019-05-12T23:27:44.189Z,68.54
2019-05-12T23:30:15.758Z,68.70
2019-05-12T23:32:51.376Z,68.52
2019-05-12T23:35:14.448Z,69.00
2019-05-12T23:37:44.098Z,69.20
2019-05-12T23:40:16.682Z,68.91
2019-05-12T23:42:44.605Z,69.00
2019-05-12T23:45:13.939Z,68.96
2019-05-12T23:47:44.019Z,68.89
2019-05-12T23:50:14.182Z,69.27
2019-05-12T23:52:44.209Z,69.40
2019-05-12T23:55:13.877Z,69.27
2019-05-12T23:57:44.383Z,69.20
